createdAt,value
2019-04-16T00:00:32.793Z,101862.86
2019-04-16T00:05:40.178Z,101856.05
2019-04-16T00:10:57.327Z,101856.23
2019-04-16T00:16:01.726Z,101853.91
2019-04-16T00:21:23.626Z,101855.35
2019-04-16T00:26:27.828Z,101851.34
2019-04-16T00:31:34.418Z,101843.55
2019-04-16T00:36:38.297Z,101832.06
2019-04-16T00:41:42.489Z,101830.53
2019-04-16T00:46:46.707Z,101830.99
2019-04-16T00:51:50.894Z,101824.84
2019-04-16T00:56:55.079Z,101822.84
2019-04-16T01:01:59.291Z,101818.87
2019-04-16T01:07:03.489Z,101814.55
2019-04-16T01:12:07.764Z,101811.02
2019-04-16T01:17:11.959Z,101809.00
2019-04-16T01:22:16.848Z,101811.66
2019-04-16T01:27:23.327Z,101817.59
2019-04-16T01:32:46.185Z,101812.92
2019-04-16T01:38:09.315Z,101804.91
2019-04-16T01:43:13.530Z,101805.58
2019-04-16T01:48:17.731Z,101798.59
2019-04-16T01:53:21.909Z,101803.05
2019-04-16T01:58:26.108Z,101804.56
2019-04-16T02:03:30.302Z,101808.51
2019-04-16T02:08:34.501Z,101803.05
2019-04-16T02:13:38.698Z,101799.27
2019-04-16T02:18:42.888Z,101795.75
2019-04-16T02:23:48.038Z,101801.06
2019-04-16T02:28:53.076Z,101802.23
2019-04-16T02:33:57.254Z,101807.81
2019-04-16T02:39:01.997Z,101811.79
2019-04-16T02:44:06.371Z,101814.59
2019-04-16T02:49:10.582Z,101818.73
2019-04-16T02:54:34.388Z,101811.28
2019-04-16T02:59:46.024Z,101804.31
2019-04-16T03:04:51.568Z,101803.83
2019-04-16T03:10:01.635Z,101808.63
2019-04-16T03:15:02.436Z,101812.26
2019-04-16T03:20:08.213Z,101812.10
2019-04-16T03:25:14.408Z,101804.94
2019-04-16T03:30:18.734Z,101801.78
2019-04-16T03:35:26.588Z,101805.05
2019-04-16T03:40:28.879Z,101805.40
2019-04-16T03:45:33.077Z,101804.50
2019-04-16T03:50:37.404Z,101804.50
2019-04-16T03:55:41.619Z,101810.58
2019-04-16T04:00:45.865Z,101809.17
2019-04-16T04:05:56.692Z,101807.70
2019-04-16T04:11:00.905Z,101805.87
2019-04-16T04:16:05.255Z,101811.71
2019-04-16T04:21:09.500Z,101805.91
2019-04-16T04:26:13.830Z,101811.05
2019-04-16T04:31:18.263Z,101810.54
2019-04-16T04:36:23.043Z,101817.17
2019-04-16T04:41:30.765Z,101810.85
2019-04-16T04:46:35.005Z,101815.49
2019-04-16T04:51:42.488Z,101819.70
2019-04-16T04:56:45.685Z,101827.86
2019-04-16T05:01:50.034Z,101829.69
2019-04-16T05:06:57.285Z,101830.91
2019-04-16T05:12:03.361Z,101829.30
2019-04-16T05:17:07.666Z,101824.03
2019-04-16T05:22:12.488Z,101821.30
2019-04-16T05:27:16.721Z,101825.66
2019-04-16T05:32:20.933Z,101826.22
2019-04-16T05:37:25.147Z,101824.79
2019-04-16T05:42:29.346Z,101831.84
2019-04-16T05:47:33.536Z,101833.39
2019-04-16T05:52:37.725Z,101830.28
2019-04-16T05:57:43.323Z,101831.33
2019-04-16T06:02:50.533Z,101831.86
2019-04-16T06:07:55.107Z,101832.38
2019-04-16T06:13:18.259Z,101831.89
2019-04-16T06:18:39.687Z,101839.13
2019-04-16T06:24:03.380Z,101836.20
2019-04-16T06:29:29.404Z,101836.73
2019-04-16T06:35:07.769Z,101837.41
2019-04-16T06:40:32.636Z,101833.55
2019-04-16T06:45:47.137Z,101828.09
2019-04-16T06:51:12.534Z,101825.41
2019-04-16T06:56:21.106Z,101829.50
2019-04-16T07:01:42.055Z,101823.19
2019-04-16T07:07:08.434Z,101816.23
2019-04-16T07:12:20.182Z,101814.03
2019-04-16T07:17:24.465Z,101813.25
2019-04-16T07:22:28.658Z,101812.44
2019-04-16T07:27:53.500Z,101816.55
2019-04-16T07:33:03.722Z,101814.73
2019-04-16T07:38:27.845Z,101819.92
2019-04-16T07:43:51.217Z,101812.95
2019-04-16T07:49:06.631Z,101814.66
2019-04-16T07:54:28.607Z,101820.08
2019-04-16T07:59:33.049Z,101825.55
2019-04-16T08:04:37.312Z,101819.78
2019-04-16T08:09:41.543Z,101824.91
2019-04-16T08:14:45.788Z,101824.20
2019-04-16T08:19:49.974Z,101825.72
2019-04-16T08:25:02.873Z,101825.97
2019-04-16T08:30:06.333Z,101828.30
2019-04-16T08:35:10.679Z,101824.48
2019-04-16T08:40:14.975Z,101824.28
2019-04-16T08:45:20.762Z,101824.52
2019-04-16T08:50:26.151Z,101819.48
2019-04-16T08:55:31.060Z,101826.95
2019-04-16T09:00:35.941Z,101820.28
2019-04-16T09:05:41.537Z,101822.20
2019-04-16T09:10:46.103Z,101820.00
2019-04-16T09:15:50.301Z,101808.05
2019-04-16T09:20:54.520Z,101799.97
2019-04-16T09:26:22.583Z,101802.78
2019-04-16T09:31:48.500Z,101805.34
2019-04-16T09:37:07.087Z,101796.36
2019-04-16T09:42:11.282Z,101800.58
2019-04-16T09:47:15.483Z,101799.61
2019-04-16T09:52:22.790Z,101800.03
2019-04-16T09:57:30.879Z,101809.82
2019-04-16T10:02:33.888Z,101806.22
2019-04-16T10:07:40.314Z,101819.47
2019-04-16T10:12:44.065Z,101815.47
2019-04-16T10:17:48.250Z,101810.67
2019-04-16T10:22:52.488Z,101802.17
2019-04-16T10:28:16.049Z,101787.39
2019-04-16T10:33:20.435Z,101783.23
2019-04-16T10:38:36.168Z,101779.45
2019-04-16T10:43:58.487Z,101775.23
2019-04-16T10:49:21.666Z,101771.94
2019-04-16T10:54:33.689Z,101775.55
2019-04-16T10:59:42.657Z,101774.88
2019-04-16T11:05:03.224Z,101765.37
2019-04-16T11:10:07.982Z,101758.95
2019-04-16T11:15:14.994Z,101759.16
2019-04-16T11:20:19.172Z,101757.80
2019-04-16T11:25:23.364Z,101749.80
2019-04-16T11:30:48.621Z,101746.38
2019-04-16T11:35:53.057Z,101736.80
2019-04-16T11:40:57.998Z,101743.39
2019-04-16T11:46:02.415Z,101746.11
2019-04-16T11:51:06.664Z,101752.03
2019-04-16T11:56:11.210Z,101741.48
2019-04-16T12:01:45.222Z,101746.06
2019-04-16T12:07:06.349Z,101749.64
2019-04-16T12:12:15.412Z,101748.86
2019-04-16T12:17:24.773Z,101743.58
2019-04-16T12:22:33.466Z,101735.40
2019-04-16T12:28:06.267Z,101724.77
2019-04-16T12:33:18.422Z,101726.66
2019-04-16T12:38:35.832Z,101721.33
2019-04-16T12:43:44.206Z,101724.36
2019-04-16T12:49:07.735Z,101702.78
2019-04-16T12:54:25.308Z,101710.39
2019-04-16T12:59:38.851Z,101702.19
2019-04-16T13:04:49.425Z,101688.48
2019-04-16T13:10:05.620Z,101688.55
2019-04-16T13:15:28.883Z,101690.67
2019-04-16T13:21:07.158Z,101686.19
2019-04-16T13:26:23.382Z,101686.27
2019-04-16T13:31:27.628Z,101687.61
2019-04-16T13:36:31.832Z,101673.61
2019-04-16T13:41:36.022Z,101672.36
2019-04-16T13:46:40.254Z,101664.40
2019-04-16T13:51:45.089Z,101653.91
2019-04-16T13:56:56.018Z,101660.85
2019-04-16T14:02:22.247Z,101662.47
2019-04-16T14:07:26.731Z,101655.78
2019-04-16T14:12:41.615Z,101662.91
2019-04-16T14:17:51.835Z,101664.80
2019-04-16T14:22:42.935Z,101659.73
2019-04-16T14:27:47.129Z,101658.22
2019-04-16T14:32:51.368Z,101656.84
2019-04-16T14:37:55.565Z,101663.64
2019-04-16T14:42:59.907Z,101659.59
2019-04-16T14:48:08.633Z,101663.50
2019-04-16T14:53:10.942Z,101670.73
2019-04-16T14:58:43.500Z,101664.70
2019-04-16T15:04:08.369Z,101660.13
2019-04-16T15:09:29.848Z,101677.69
2019-04-16T15:14:38.176Z,101673.39
2019-04-16T15:19:48.357Z,101671.52
2019-04-16T15:24:59.446Z,101668.69
2019-04-16T15:30:16.622Z,101672.00
2019-04-16T15:35:25.531Z,101675.19
2019-04-16T15:40:39.168Z,101676.42
2019-04-16T15:46:25.285Z,101676.14
2019-04-16T15:51:26.153Z,101675.05
2019-04-16T15:56:51.794Z,101681.77
2019-04-16T16:02:27.136Z,101685.78
2019-04-16T16:07:36.194Z,101686.23
2019-04-16T16:12:40.419Z,101682.80
2019-04-16T16:17:44.630Z,101692.71
2019-04-16T16:22:48.853Z,101693.64
2019-04-16T16:27:53.071Z,101694.33
2019-04-16T16:32:57.303Z,101701.22
2019-04-16T16:38:01.540Z,101700.91
2019-04-16T16:43:07.932Z,101710.58
2019-04-16T16:48:12.124Z,101706.81
2019-04-16T16:53:38.301Z,101711.33
2019-04-16T16:58:56.840Z,101713.70
2019-04-16T17:04:13.570Z,101715.05
2019-04-16T17:09:32.017Z,101719.91
2019-04-16T17:14:37.878Z,101725.45
2019-04-16T17:19:42.236Z,101733.09
2019-04-16T17:24:46.435Z,101734.75
2019-04-16T17:29:50.905Z,101734.52
2019-04-16T17:34:55.519Z,101744.84
2019-04-16T17:40:07.690Z,101742.06
2019-04-16T17:45:49.283Z,101755.69
2019-04-16T17:51:12.437Z,101756.89
2019-04-16T17:56:31.881Z,101765.47
2019-04-16T18:01:54.325Z,101767.45
2019-04-16T18:07:17.650Z,101778.84
2019-04-16T18:12:39.075Z,101786.95
2019-04-16T18:18:00.867Z,101789.89
2019-04-16T18:23:09.434Z,101799.39
2019-04-16T18:28:18.782Z,101800.54
2019-04-16T18:33:28.822Z,101806.81
2019-04-16T18:38:52.015Z,101816.80
2019-04-16T18:44:30.565Z,101821.84
2019-04-16T18:49:35.626Z,101827.85
2019-04-16T18:54:40.248Z,101840.36
2019-04-16T18:59:44.912Z,101839.87
2019-04-16T19:04:51.087Z,101839.52
2019-04-16T19:09:56.115Z,101844.53
2019-04-16T19:15:01.171Z,101857.66
2019-04-16T19:20:06.376Z,101852.33
2019-04-16T19:25:11.624Z,101859.20
2019-04-16T19:30:17.476Z,101866.04
2019-04-16T19:35:22.954Z,101865.83
2019-04-16T19:40:28.525Z,101872.77
2019-04-16T19:45:34.013Z,101875.70
2019-04-16T19:50:39.953Z,101874.48
2019-04-16T19:55:46.634Z,101881.93
2019-04-16T20:00:53.971Z,101886.70
2019-04-16T20:05:59.544Z,101887.31
2019-04-16T20:11:04.822Z,101893.44
2019-04-16T20:16:10.661Z,101899.00
2019-04-16T20:21:15.717Z,101907.79
2019-04-16T20:26:20.979Z,101906.63
2019-04-16T20:31:25.707Z,101906.44
2019-04-16T20:36:30.447Z,101919.34
2019-04-16T20:41:34.991Z,101920.24
2019-04-16T20:46:39.484Z,101921.87
2019-04-16T20:51:44.834Z,101928.26
2019-04-16T20:56:53.263Z,101926.92
2019-04-16T21:01:56.056Z,101932.09
2019-04-16T21:07:00.255Z,101936.84
2019-04-16T21:12:04.497Z,101934.95
2019-04-16T21:17:08.709Z,101932.75
2019-04-16T21:22:14.038Z,101942.34
2019-04-16T21:27:18.335Z,101947.27
2019-04-16T21:32:41.503Z,101942.08
2019-04-16T21:38:07.721Z,101946.35
2019-04-16T21:43:12.083Z,101956.89
2019-04-16T21:48:16.287Z,101965.69
2019-04-16T21:53:20.509Z,101963.93
2019-04-16T21:58:24.723Z,101969.42
2019-04-16T22:03:30.072Z,101962.03
2019-04-16T22:08:34.297Z,101968.37
2019-04-16T22:13:38.579Z,101970.42
2019-04-16T22:18:42.821Z,101976.23
2019-04-16T22:23:50.137Z,101980.06
2019-04-16T22:28:53.065Z,101980.52
2019-04-16T22:33:57.305Z,101985.86
2019-04-16T22:39:22.525Z,101988.74
2019-04-16T22:44:44.402Z,101997.07
2019-04-16T22:49:48.680Z,101998.36
2019-04-16T22:54:54.592Z,101998.05
2019-04-16T22:59:58.838Z,101997.22
2019-04-16T23:05:03.126Z,101997.27
2019-04-16T23:10:08.010Z,102000.31
2019-04-16T23:15:13.656Z,101998.53
2019-04-16T23:20:29.217Z,101999.34
2019-04-16T23:25:26.977Z,101998.27
2019-04-16T23:30:30.124Z,102001.88
2019-04-16T23:35:34.359Z,102005.15
2019-04-16T23:40:40.829Z,102011.80
2019-04-16T23:46:06.924Z,102010.53
2019-04-16T23:51:16.104Z,102015.88
2019-04-16T23:56:42.153Z,102014.95
